Time;durP1;ratioP1;P1;durP2;ratioP2;P2;SDS_P1;SDS_P2;PMS_P1;PMS_P2;Temp;Humidity;BMP_temperature;BMP_pressure;BME280_temperature;BME280_humidity;BME280_pressure;Samples;Min_cycle;Max_cycle;Signal;HPM_P1;HPM_P2
2022/02/01 00:02:05;;;;;;;17.17;1.95;;;;;;;;;;5062067;28;20106;-61
2022/02/01 00:04:58;;;;;;;16.35;2.40;;;;;;;;;;5060485;28;20064;-60
2022/02/01 00:07:28;;;;;;;14.82;2.45;;;;;;;;;;5062853;28;20130;-61
2022/02/01 00:10:16;;;;;;;17.10;3.17;;;;;;;;;;5065226;28;20132;-61
2022/02/01 00:13:02;;;;;;;30.75;5.07;;;;;;;;;;5068063;28;20493;-61
2022/02/01 00:20:39;;;;;;;35.40;4.72;;;;;;;;;;5062074;28;20146;-60
2022/02/01 00:36:48;;;;;;;22.88;3.92;;;;;;;;;;5062948;28;20094;-60
2022/02/01 00:39:16;;;;;;;19.83;3.90;;;;;;;;;;5065773;28;20040;-60
2022/02/01 00:41:47;;;;;;;36.33;4.63;;;;;;;;;;5066257;28;20167;-61
2022/02/01 00:44:14;;;;;;;15.07;2.60;;;;;;;;;;5039951;28;20071;-61
2022/02/01 00:46:40;;;;;;;13.75;3.10;;;;;;;;;;5057531;28;20132;-61
2022/02/01 00:49:06;;;;;;;14.45;2.03;;;;;;;;;;5057340;28;20048;-61
2022/02/01 00:51:32;;;;;;;16.90;2.40;;;;;;;;;;5059635;28;20147;-61
2022/02/01 00:53:58;;;;;;;23.88;3.20;;;;;;;;;;5064673;28;20066;-61
2022/02/01 00:56:25;;;;;;;20.63;2.67;;;;;;;;;;5080137;28;20041;-60
2022/02/01 00:58:51;;;;;;;17.50;2.85;;;;;;;;;;5051979;28;20104;-60
2022/02/01 01:01:17;;;;;;;15.68;2.10;;;;;;;;;;5050565;28;20101;-60
2022/02/01 01:03:45;;;;;;;18.23;2.63;;;;;;;;;;5045588;28;20123;-60
2022/02/01 01:06:11;;;;;;;17.75;2.33;;;;;;;;;;5067624;28;20071;-61
2022/02/01 01:08:38;;;;;;;19.48;3.65;;;;;;;;;;5073925;28;20033;-60
2022/02/01 01:11:05;;;;;;;13.93;2.25;;;;;;;;;;5062893;28;20638;-60
2022/02/01 01:14:03;;;;;;;23.02;4.72;;;;;;;;;;5058908;28;20044;-61
2022/02/01 01:43:29;;;;;;;17.55;3.45;;;;;;;;;;5063247;28;20144;-61
2022/02/01 01:43:43;;;;;;;13.82;1.92;;;;;;;;;;5045319;28;20045;-61
2022/02/01 01:54:23;;;;;;;19.23;2.58;;;;;;;;;;5059531;28;20060;-61
2022/02/01 01:56:53;;;;;;;12.38;2.53;;;;;;;;;;5042124;28;20123;-61
2022/02/01 01:59:19;;;;;;;22.77;2.85;;;;;;;;;;5072367;28;20048;-61
2022/02/01 02:01:46;;;;;;;15.32;3.67;;;;;;;;;;5066166;28;20109;-61
2022/02/01 02:04:12;;;;;;;17.80;2.13;;;;;;;;;;5056086;28;20415;-60
2022/02/01 02:06:38;;;;;;;12.25;2.03;;;;;;;;;;5067116;28;20397;-61
2022/02/01 02:09:07;;;;;;;19.65;3.25;;;;;;;;;;5040132;28;20048;-60
2022/02/01 02:11:49;;;;;;;17.33;1.52;;;;;;;;;;5056751;28;20060;-60
2022/02/01 02:14:23;;;;;;;11.20;1.63;;;;;;;;;;5057888;28;20501;-60
2022/02/01 02:16:56;;;;;;;7.80;1.30;;;;;;;;;;5060363;28;20044;-60
2022/02/01 02:19:23;;;;;;;9.40;1.77;;;;;;;;;;5073991;28;20133;-60
2022/02/01 02:21:51;;;;;;;10.82;1.48;;;;;;;;;;5072287;28;20044;-61
2022/02/01 02:24:17;;;;;;;11.98;1.77;;;;;;;;;;5068030;28;20046;-60
2022/02/01 02:26:44;;;;;;;12.43;1.50;;;;;;;;;;5062757;28;20196;-60
2022/02/01 02:29:10;;;;;;;7.53;1.67;;;;;;;;;;5058543;28;20048;-60
2022/02/01 02:31:38;;;;;;;9.48;1.52;;;;;;;;;;5060122;28;20388;-60
2022/02/01 02:34:11;;;;;;;10.77;1.20;;;;;;;;;;5058151;28;20041;-60
2022/02/01 02:36:43;;;;;;;11.07;1.37;;;;;;;;;;5054577;28;20049;-60
2022/02/01 02:39:21;;;;;;;7.18;1.52;;;;;;;;;;5060520;28;20040;-60
2022/02/01 02:42:10;;;;;;;12.05;2.55;;;;;;;;;;5068791;28;20082;-60
2022/02/01 02:47:22;;;;;;;11.15;1.58;;;;;;;;;;5069147;28;20044;-60
2022/02/01 02:49:48;;;;;;;13.20;1.65;;;;;;;;;;5077553;28;20044;-60
2022/02/01 02:52:14;;;;;;;8.35;1.20;;;;;;;;;;5074704;28;20040;-60
2022/02/01 02:54:41;;;;;;;18.45;2.13;;;;;;;;;;5069540;28;20377;-59
2022/02/01 02:57:08;;;;;;;17.90;2.28;;;;;;;;;;5056684;28;20045;-60
2022/02/01 02:59:34;;;;;;;17.02;1.90;;;;;;;;;;5054457;28;20037;-60
2022/02/01 03:02:01;;;;;;;16.38;1.80;;;;;;;;;;5056097;28;20480;-60
2022/02/01 03:04:28;;;;;;;19.77;4.68;;;;;;;;;;5056908;28;20116;-60
2022/02/01 03:06:55;;;;;;;22.52;2.17;;;;;;;;;;5060657;28;20496;-60
2022/02/01 03:09:22;;;;;;;13.35;2.08;;;;;;;;;;5072895;28;20059;-60
2022/02/01 03:11:49;;;;;;;16.65;2.25;;;;;;;;;;5054632;28;20079;-60
2022/02/01 03:14:26;;;;;;;10.55;1.63;;;;;;;;;;5070675;28;20041;-60
2022/02/01 03:22:04;;;;;;;16.30;1.58;;;;;;;;;;5061316;28;20056;-60
2022/02/01 03:24:31;;;;;;;11.82;1.23;;;;;;;;;;5061385;28;20044;-60
2022/02/01 03:26:57;;;;;;;10.73;1.70;;;;;;;;;;5041705;28;20067;-60
2022/02/01 03:29:23;;;;;;;12.65;2.70;;;;;;;;;;5061144;28;20136;-60
2022/02/01 03:31:50;;;;;;;15.20;2.00;;;;;;;;;;5071699;28;20036;-60
2022/02/01 03:34:16;;;;;;;15.35;2.35;;;;;;;;;;5048309;28;20138;-60
2022/02/01 03:36:42;;;;;;;10.50;1.98;;;;;;;;;;5063472;28;20559;-60
2022/02/01 03:39:09;;;;;;;11.27;2.08;;;;;;;;;;5067309;28;20041;-60
2022/02/01 03:41:35;;;;;;;12.60;2.03;;;;;;;;;;5068559;28;20045;-60
2022/02/01 03:44:03;;;;;;;13.43;1.80;;;;;;;;;;5059943;28;20830;-60
2022/02/01 03:46:30;;;;;;;13.02;2.13;;;;;;;;;;5063084;28;20063;-60
2022/02/01 03:48:56;;;;;;;15.23;2.30;;;;;;;;;;5078871;28;20058;-60
2022/02/01 03:51:22;;;;;;;16.35;1.90;;;;;;;;;;5083019;28;20048;-60
2022/02/01 03:53:48;;;;;;;12.77;2.28;;;;;;;;;;5075513;28;20040;-60
2022/02/01 03:56:14;;;;;;;9.25;2.90;;;;;;;;;;5066269;28;20114;-60
2022/02/01 03:58:40;;;;;;;22.58;2.85;;;;;;;;;;5063291;28;20051;-60
2022/02/01 04:01:06;;;;;;;14.02;1.77;;;;;;;;;;5062693;28;20554;-60
2022/02/01 04:03:33;;;;;;;16.25;2.50;;;;;;;;;;5060761;28;20123;-60
2022/02/01 04:05:59;;;;;;;20.95;2.05;;;;;;;;;;5059222;28;20492;-60
2022/02/01 04:08:25;;;;;;;22.67;2.40;;;;;;;;;;5040403;28;20070;-60
2022/02/01 04:10:51;;;;;;;7.05;1.45;;;;;;;;;;5059494;28;20049;-60
2022/02/01 04:13:19;;;;;;;14.18;2.65;;;;;;;;;;5074084;28;20041;-60
2022/02/01 04:15:45;;;;;;;22.05;2.10;;;;;;;;;;5058585;28;20057;-60
2022/02/01 04:18:12;;;;;;;14.55;2.50;;;;;;;;;;5076069;28;20044;-60
2022/02/01 04:20:38;;;;;;;20.70;2.35;;;;;;;;;;5078031;28;20444;-60
2022/02/01 04:23:05;;;;;;;16.45;3.78;;;;;;;;;;5076496;28;20041;-60
2022/02/01 04:25:31;;;;;;;29.92;4.68;;;;;;;;;;5072393;28;20048;-60
2022/02/01 04:27:57;;;;;;;21.83;2.88;;;;;;;;;;5068742;28;20116;-60
2022/02/01 04:30:23;;;;;;;23.02;3.00;;;;;;;;;;5064162;28;20072;-60
2022/02/01 04:32:50;;;;;;;18.05;2.45;;;;;;;;;;5064934;28;20076;-60
2022/02/01 04:35:18;;;;;;;20.10;2.80;;;;;;;;;;5068507;28;20400;-60
2022/02/01 04:37:44;;;;;;;20.90;2.92;;;;;;;;;;5065793;28;20041;-60
2022/02/01 04:40:13;;;;;;;22.63;3.58;;;;;;;;;;5072031;28;20044;-60
2022/02/01 04:42:41;;;;;;;18.88;3.10;;;;;;;;;;5077490;28;20136;-60
2022/02/01 04:45:08;;;;;;;21.77;4.35;;;;;;;;;;5075527;28;20455;-60
2022/02/01 04:47:35;;;;;;;25.45;6.00;;;;;;;;;;5067839;28;20045;-60
2022/02/01 04:50:02;;;;;;;26.63;4.72;;;;;;;;;;5059450;28;20041;-61
2022/02/01 04:52:29;;;;;;;23.30;5.07;;;;;;;;;;5043314;28;20079;-61
2022/02/01 04:54:57;;;;;;;29.48;4.30;;;;;;;;;;5058256;28;20037;-61
2022/02/01 04:57:23;;;;;;;26.90;3.22;;;;;;;;;;5040506;28;20045;-61
2022/02/01 04:59:49;;;;;;;23.02;3.08;;;;;;;;;;5064346;28;20365;-61
2022/02/01 05:02:15;;;;;;;29.27;3.47;;;;;;;;;;5062324;28;20064;-61
2022/02/01 05:04:42;;;;;;;23.77;3.53;;;;;;;;;;5076750;28;20098;-61
2022/02/01 05:07:08;;;;;;;20.70;2.92;;;;;;;;;;5053484;28;20047;-61
2022/02/01 05:09:34;;;;;;;25.45;3.60;;;;;;;;;;5065835;28;20064;-60
2022/02/01 05:12:04;;;;;;;25.58;4.28;;;;;;;;;;5042972;28;20415;-61
2022/02/01 05:14:31;;;;;;;36.58;4.05;;;;;;;;;;5061367;28;20040;-60
2022/02/01 05:17:00;;;;;;;29.25;3.70;;;;;;;;;;5040825;28;20098;-60
2022/02/01 05:21:55;;;;;;;17.00;4.53;;;;;;;;;;5066671;28;20037;-60
2022/02/01 05:24:24;;;;;;;24.75;3.17;;;;;;;;;;5065604;28;20044;-60
2022/02/01 05:26:51;;;;;;;21.65;2.80;;;;;;;;;;5079195;28;20121;-60
2022/02/01 05:29:18;;;;;;;23.13;3.70;;;;;;;;;;5065125;28;20048;-61
2022/02/01 05:31:45;;;;;;;33.17;5.07;;;;;;;;;;5070176;28;20048;-61
2022/02/01 05:34:11;;;;;;;32.90;4.80;;;;;;;;;;5063966;28;20427;-61
2022/02/01 05:36:37;;;;;;;27.10;3.88;;;;;;;;;;5047562;28;20483;-60
2022/02/01 05:39:11;;;;;;;30.92;4.25;;;;;;;;;;5059057;28;20041;-61
2022/02/01 05:41:38;;;;;;;45.95;5.13;;;;;;;;;;5063900;28;20040;-61
2022/02/01 05:44:04;;;;;;;27.13;4.72;;;;;;;;;;5073908;28;20130;-60
2022/02/01 05:46:31;;;;;;;37.10;4.93;;;;;;;;;;5062253;28;20413;-61
2022/02/01 05:48:57;;;;;;;32.15;6.13;;;;;;;;;;5060283;28;20116;-60
2022/02/01 05:51:24;;;;;;;28.40;4.97;;;;;;;;;;5042897;28;20542;-61
2022/02/01 05:53:51;;;;;;;26.90;4.60;;;;;;;;;;5059225;28;20060;-77
2022/02/01 05:56:17;;;;;;;28.80;6.85;;;;;;;;;;5063723;28;20056;-60
2022/02/01 05:58:43;;;;;;;21.35;4.50;;;;;;;;;;5058623;28;20169;-60
2022/02/01 06:01:09;;;;;;;24.98;6.10;;;;;;;;;;5064393;28;20045;-60
2022/02/01 06:03:35;;;;;;;31.92;4.00;;;;;;;;;;5062151;28;20463;-60
2022/02/01 06:06:02;;;;;;;34.22;4.78;;;;;;;;;;5058133;28;20185;-60
2022/02/01 06:08:28;;;;;;;32.72;4.30;;;;;;;;;;5069930;28;20036;-60
2022/02/01 06:10:54;;;;;;;34.78;5.97;;;;;;;;;;5067072;28;20044;-60
2022/02/01 06:13:21;;;;;;;46.03;5.75;;;;;;;;;;5063519;28;20045;-60
2022/02/01 06:15:47;;;;;;;37.92;5.38;;;;;;;;;;5064248;28;20048;-60
2022/02/01 06:18:13;;;;;;;30.20;5.38;;;;;;;;;;5066826;28;20041;-60
2022/02/01 06:20:39;;;;;;;32.40;6.00;;;;;;;;;;5060320;28;20508;-60
2022/02/01 06:23:13;;;;;;;32.45;5.88;;;;;;;;;;5063719;28;20033;-60
2022/02/01 06:25:50;;;;;;;41.95;7.05;;;;;;;;;;5073423;28;20397;-61
2022/02/01 06:28:18;;;;;;;43.30;9.13;;;;;;;;;;5065542;28;20123;-61
2022/02/01 06:30:44;;;;;;;36.75;7.28;;;;;;;;;;5066504;28;20373;-60
2022/02/01 06:33:10;;;;;;;40.80;6.45;;;;;;;;;;5067203;28;20059;-60
2022/02/01 06:35:37;;;;;;;26.70;7.45;;;;;;;;;;5068900;28;20055;-60
2022/02/01 06:38:03;;;;;;;41.17;7.38;;;;;;;;;;5051703;28;20045;-60
2022/02/01 06:40:29;;;;;;;44.67;6.88;;;;;;;;;;5057923;28;20048;-60
2022/02/01 06:42:56;;;;;;;37.63;6.65;;;;;;;;;;5065232;28;20052;-60
2022/02/01 06:45:22;;;;;;;40.45;7.50;;;;;;;;;;5056419;28;20405;-60
2022/02/01 06:47:49;;;;;;;34.20;7.07;;;;;;;;;;5053696;28;20033;-60
2022/02/01 06:50:19;;;;;;;39.15;8.27;;;;;;;;;;5056076;28;20083;-60
2022/02/01 06:52:46;;;;;;;45.28;10.40;;;;;;;;;;5051967;28;20080;-60
2022/02/01 06:55:13;;;;;;;38.60;10.20;;;;;;;;;;5043985;28;20048;-60
2022/02/01 06:57:40;;;;;;;43.33;9.80;;;;;;;;;;5066839;28;20358;-60
2022/02/01 07:00:08;;;;;;;41.67;10.68;;;;;;;;;;5054771;28;20051;-60
2022/02/01 07:02:34;;;;;;;40.10;9.98;;;;;;;;;;5066630;28;20071;-60
2022/02/01 07:05:01;;;;;;;41.45;10.75;;;;;;;;;;5058495;28;21413;-60
2022/02/01 07:07:27;;;;;;;39.65;11.02;;;;;;;;;;5095113;28;20051;-59
2022/02/01 07:09:53;;;;;;;42.08;11.93;;;;;;;;;;5094565;28;20056;-59
2022/02/01 07:12:20;;;;;;;41.95;11.45;;;;;;;;;;5092789;28;20052;-59
2022/02/01 07:14:46;;;;;;;38.60;12.90;;;;;;;;;;5090495;28;20093;-60
2022/02/01 07:17:12;;;;;;;37.47;12.35;;;;;;;;;;5089648;28;20040;-60
2022/02/01 07:19:38;;;;;;;33.97;12.20;;;;;;;;;;5089968;28;20364;-60
2022/02/01 07:22:04;;;;;;;40.30;13.52;;;;;;;;;;5091730;28;20044;-60
2022/02/01 07:24:37;;;;;;;37.63;13.15;;;;;;;;;;5086515;28;20040;-60
2022/02/01 07:27:11;;;;;;;51.63;15.30;;;;;;;;;;5088013;28;20181;-60
2022/02/01 07:29:37;;;;;;;;;;;;;;;;;;5091163;28;20067;-60
2022/02/01 07:32:03;;;;;;;34.63;14.20;;;;;;;;;;5090402;28;20020;-60
2022/02/01 07:34:29;;;;;;;44.22;16.00;;;;;;;;;;5093109;28;20051;-60
2022/02/01 07:36:55;;;;;;;36.35;14.93;;;;;;;;;;5089561;28;20032;-60
2022/02/01 07:39:21;;;;;;;35.22;14.23;;;;;;;;;;5091945;28;20475;-60
2022/02/01 07:41:48;;;;;;;35.58;15.68;;;;;;;;;;5089037;28;20046;-60
2022/02/01 07:44:15;;;;;;;33.78;15.60;;;;;;;;;;5090212;28;20056;-60
2022/02/01 07:46:43;;;;;;;43.80;16.60;;;;;;;;;;5089314;28;20098;-60
2022/02/01 07:49:12;;;;;;;38.30;15.45;;;;;;;;;;5091242;28;20402;-60
2022/02/01 07:51:39;;;;;;;40.97;14.90;;;;;;;;;;5090127;28;20471;-60
2022/02/01 07:54:05;;;;;;;35.65;13.85;;;;;;;;;;5091392;28;20472;-60
2022/02/01 07:56:31;;;;;;;32.88;14.43;;;;;;;;;;5090981;28;20560;-59
2022/02/01 07:58:57;;;;;;;32.25;14.68;;;;;;;;;;5071414;28;20575;-60
2022/02/01 08:01:23;;;;;;;32.45;13.40;;;;;;;;;;5092381;28;20383;-59
2022/02/01 08:03:49;;;;;;;37.33;13.13;;;;;;;;;;5088608;28;20055;-60
2022/02/01 08:06:15;;;;;;;38.28;13.27;;;;;;;;;;5091203;28;20048;-59
2022/02/01 08:08:41;;;;;;;32.22;13.05;;;;;;;;;;5089741;28;20055;-60
2022/02/01 08:11:12;;;;;;;28.25;12.27;;;;;;;;;;5089914;28;20086;-61
2022/02/01 08:18:59;;;;;;;22.92;9.15;;;;;;;;;;5088515;28;20036;-59
2022/02/01 08:21:28;;;;;;;20.10;9.52;;;;;;;;;;5082641;28;20040;-59
2022/02/01 08:23:54;;;;;;;17.55;9.32;;;;;;;;;;5062463;28;20487;-60
2022/02/01 08:26:21;;;;;;;18.92;9.05;;;;;;;;;;5068240;28;20056;-60
2022/02/01 08:28:48;;;;;;;24.23;9.40;;;;;;;;;;5091121;28;20403;-60
2022/02/01 08:31:16;;;;;;;21.38;9.30;;;;;;;;;;5083123;28;20040;-60
2022/02/01 08:33:42;;;;;;;20.23;9.23;;;;;;;;;;5095546;28;20142;-59
2022/02/01 08:36:08;;;;;;;22.23;8.68;;;;;;;;;;5090769;28;20036;-60
2022/02/01 08:38:35;;;;;;;30.92;8.95;;;;;;;;;;5072896;28;20126;-60
2022/02/01 08:41:01;;;;;;;25.15;9.27;;;;;;;;;;5090510;28;20092;-61
2022/02/01 08:43:28;;;;;;;21.10;8.93;;;;;;;;;;5077264;28;20140;-60
2022/02/01 08:45:54;;;;;;;21.83;8.35;;;;;;;;;;5073290;28;20445;-60
2022/02/01 08:48:20;;;;;;;22.73;9.00;;;;;;;;;;5071899;28;20483;-60
2022/02/01 08:50:47;;;;;;;18.67;8.30;;;;;;;;;;5090975;28;20043;-60
2022/02/01 08:53:18;;;;;;;28.25;8.80;;;;;;;;;;5063441;28;20079;-60
2022/02/01 08:56:02;;;;;;;25.10;8.52;;;;;;;;;;5087567;28;20396;-60
2022/02/01 08:58:30;;;;;;;32.65;9.10;;;;;;;;;;5074361;28;20044;-60
2022/02/01 09:00:56;;;;;;;23.70;9.40;;;;;;;;;;5090692;28;20976;-60
2022/02/01 09:03:22;;;;;;;27.95;8.65;;;;;;;;;;5090644;28;20040;-60
2022/02/01 09:05:49;;;;;;;24.02;8.38;;;;;;;;;;5089366;28;20445;-60
2022/02/01 09:08:16;;;;;;;24.55;8.35;;;;;;;;;;5087612;28;20058;-60
2022/02/01 09:10:42;;;;;;;23.83;8.73;;;;;;;;;;5068822;28;20166;-60
2022/02/01 09:13:09;;;;;;;19.80;8.05;;;;;;;;;;5090430;28;20039;-60
2022/02/01 09:15:35;;;;;;;23.83;8.43;;;;;;;;;;5089926;28;20040;-60
2022/02/01 09:18:01;;;;;;;19.10;7.40;;;;;;;;;;5090541;28;20497;-60
2022/02/01 09:20:29;;;;;;;20.95;7.50;;;;;;;;;;5089981;28;20044;-59
2022/02/01 09:22:55;;;;;;;25.83;9.07;;;;;;;;;;5090337;28;20044;-59
2022/02/01 09:25:21;;;;;;;18.13;8.25;;;;;;;;;;5089912;28;20469;-59
2022/02/01 09:27:49;;;;;;;22.30;7.93;;;;;;;;;;5090471;28;20425;-59
2022/02/01 09:30:17;;;;;;;21.15;7.57;;;;;;;;;;5088604;28;20154;-59
2022/02/01 09:32:44;;;;;;;20.73;7.35;;;;;;;;;;5088812;28;20050;-59
2022/02/01 09:35:10;;;;;;;18.95;7.65;;;;;;;;;;5090665;28;20484;-59
2022/02/01 09:37:36;;;;;;;13.13;7.03;;;;;;;;;;5090044;28;20488;-59
2022/02/01 09:40:03;;;;;;;19.63;7.93;;;;;;;;;;5090151;28;20097;-59
2022/02/01 09:42:30;;;;;;;21.30;7.43;;;;;;;;;;5091341;28;20052;-60
2022/02/01 09:44:57;;;;;;;25.38;8.52;;;;;;;;;;5093723;28;20498;-59
2022/02/01 09:47:31;;;;;;;17.27;8.02;;;;;;;;;;5091691;28;20375;-59
2022/02/01 09:49:58;;;;;;;28.10;7.97;;;;;;;;;;5091293;28;20075;-59
2022/02/01 09:52:24;;;;;;;23.65;8.07;;;;;;;;;;5088583;28;20167;-60
2022/02/01 09:54:52;;;;;;;19.08;6.97;;;;;;;;;;5089894;28;20040;-60
2022/02/01 09:57:20;;;;;;;23.10;7.03;;;;;;;;;;5089524;28;20050;-60
2022/02/01 09:59:54;;;;;;;18.42;6.88;;;;;;;;;;5091837;28;20063;-60
2022/02/01 10:02:20;;;;;;;18.50;6.87;;;;;;;;;;5089883;28;20036;-60
2022/02/01 10:04:50;;;;;;;18.75;6.82;;;;;;;;;;5090485;28;20159;-60
2022/02/01 10:07:16;;;;;;;23.30;6.90;;;;;;;;;;5088849;28;21154;-60
2022/02/01 10:09:49;;;;;;;24.05;5.88;;;;;;;;;;5089714;28;20059;-60
2022/02/01 10:12:17;;;;;;;25.30;7.40;;;;;;;;;;5086203;28;20093;-60
2022/02/01 10:14:52;;;;;;;22.23;7.20;;;;;;;;;;5089809;28;20036;-60
2022/02/01 10:17:25;;;;;;;25.50;7.65;;;;;;;;;;5086227;28;20082;-60
2022/02/01 10:19:51;;;;;;;26.30;7.00;;;;;;;;;;5082108;28;20052;-60
2022/02/01 10:22:28;;;;;;;27.85;7.70;;;;;;;;;;5070205;28;20044;-61
2022/02/01 10:24:54;;;;;;;26.90;7.90;;;;;;;;;;5072140;28;20076;-60
2022/02/01 10:27:21;;;;;;;34.88;7.93;;;;;;;;;;5058252;28;20506;-70
2022/02/01 10:29:58;;;;;;;30.60;7.45;;;;;;;;;;5054509;28;20063;-60
2022/02/01 10:32:35;;;;;;;29.50;6.55;;;;;;;;;;5091391;28;20524;-60
2022/02/01 10:35:23;;;;;;;30.52;7.18;;;;;;;;;;5088225;28;20040;-60
2022/02/01 10:38:04;;;;;;;30.30;6.78;;;;;;;;;;5093199;28;20067;-60
2022/02/01 10:40:37;;;;;;;32.15;7.40;;;;;;;;;;5089641;28;20048;-60
2022/02/01 10:43:04;;;;;;;20.52;6.13;;;;;;;;;;5074837;28;20657;-60
2022/02/01 10:45:33;;;;;;;27.52;6.78;;;;;;;;;;5091950;28;20036;-60
2022/02/01 10:47:59;;;;;;;38.13;7.28;;;;;;;;;;5089554;28;20040;-60
2022/02/01 10:50:27;;;;;;;25.25;8.05;;;;;;;;;;5089104;28;20135;-60
2022/02/01 10:52:55;;;;;;;35.10;9.10;;;;;;;;;;5091692;28;20214;-60
2022/02/01 10:55:22;;;;;;;45.47;7.90;;;;;;;;;;5089856;28;20124;-60
2022/02/01 10:57:48;;;;;;;32.65;9.55;;;;;;;;;;5092402;28;20097;-59
2022/02/01 11:00:16;;;;;;;35.55;8.85;;;;;;;;;;5086906;28;20159;-60
2022/02/01 11:02:43;;;;;;;32.83;7.85;;;;;;;;;;5091384;28;20048;-60
2022/02/01 11:05:10;;;;;;;32.67;7.07;;;;;;;;;;5083360;28;20062;-77
2022/02/01 11:07:37;;;;;;;28.38;7.70;;;;;;;;;;5091773;28;20092;-61
2022/02/01 11:10:06;;;;;;;41.60;7.70;;;;;;;;;;5089929;28;20056;-60
2022/02/01 11:12:34;;;;;;;31.00;7.18;;;;;;;;;;5084745;28;20036;-60
2022/02/01 11:15:00;;;;;;;39.97;6.97;;;;;;;;;;5094491;28;20031;-60
2022/02/01 11:17:26;;;;;;;27.27;6.93;;;;;;;;;;5111773;28;20058;-60
2022/02/01 11:19:54;;;;;;;33.25;6.50;;;;;;;;;;5112207;28;20111;-61
2022/02/01 11:22:21;;;;;;;35.80;6.45;;;;;;;;;;5105326;27;20054;-61
2022/02/01 11:24:52;;;;;;;31.48;7.28;;;;;;;;;;5111681;27;20118;-60
2022/02/01 11:27:20;;;;;;;26.35;6.38;;;;;;;;;;5112769;27;20492;-60
2022/02/01 11:32:18;;;;;;;39.85;7.30;;;;;;;;;;5114616;27;20518;-60
2022/02/01 11:34:45;;;;;;;42.47;7.07;;;;;;;;;;5111279;27;20508;-60
2022/02/01 11:37:13;;;;;;;39.72;6.57;;;;;;;;;;5117437;27;20046;-60
2022/02/01 11:39:53;;;;;;;32.83;8.18;;;;;;;;;;5112322;27;20039;-60
2022/02/01 11:42:20;;;;;;;45.78;6.85;;;;;;;;;;5092447;28;20044;-60
2022/02/01 11:44:46;;;;;;;33.75;5.50;;;;;;;;;;5109142;28;20047;-60
2022/02/01 11:47:19;;;;;;;37.40;5.47;;;;;;;;;;5113356;28;20402;-60
2022/02/01 11:49:54;;;;;;;37.55;7.00;;;;;;;;;;5114674;27;20049;-60
2022/02/01 11:52:21;;;;;;;43.75;6.00;;;;;;;;;;5097966;28;20104;-60
2022/02/01 11:54:48;;;;;;;37.40;5.57;;;;;;;;;;5094572;28;20044;-60
2022/02/01 11:57:19;;;;;;;44.03;5.63;;;;;;;;;;5110660;28;20156;-60
2022/02/01 11:59:50;;;;;;;33.72;5.28;;;;;;;;;;5108459;28;20036;-60
2022/02/01 12:02:23;;;;;;;58.60;7.68;;;;;;;;;;5109753;28;20046;-61
2022/02/01 12:04:49;;;;;;;34.38;4.85;;;;;;;;;;5111817;27;20048;-60
2022/02/01 12:07:22;;;;;;;38.60;5.93;;;;;;;;;;5109999;28;20040;-60
2022/02/01 12:09:48;;;;;;;40.40;6.32;;;;;;;;;;5109451;28;20118;-60
2022/02/01 12:12:15;;;;;;;42.50;6.57;;;;;;;;;;5111274;28;20035;-60
2022/02/01 12:14:41;;;;;;;41.10;5.05;;;;;;;;;;5112560;28;20115;-60
2022/02/01 12:17:08;;;;;;;45.53;6.72;;;;;;;;;;5093647;28;20043;-61
2022/02/01 12:19:37;;;;;;;45.85;6.35;;;;;;;;;;5111833;28;20032;-60
2022/02/01 12:22:08;;;;;;;40.47;5.60;;;;;;;;;;5093670;28;20062;-60
2022/02/01 12:24:35;;;;;;;36.63;5.05;;;;;;;;;;5110336;28;20571;-60
2022/02/01 12:27:01;;;;;;;46.50;7.88;;;;;;;;;;5108631;28;20118;-61
2022/02/01 12:29:27;;;;;;;48.25;6.93;;;;;;;;;;5110021;28;20039;-60
2022/02/01 12:31:54;;;;;;;54.05;5.80;;;;;;;;;;5112145;28;20052;-60
2022/02/01 12:34:20;;;;;;;43.58;6.82;;;;;;;;;;5111348;28;20063;-60
2022/02/01 12:36:50;;;;;;;49.05;6.97;;;;;;;;;;5112164;28;20054;-61
2022/02/01 12:39:22;;;;;;;51.50;7.53;;;;;;;;;;5111678;28;20142;-61
2022/02/01 12:41:58;;;;;;;35.17;6.13;;;;;;;;;;5110820;28;20462;-61
2022/02/01 12:46:55;;;;;;;46.42;6.60;;;;;;;;;;5110709;28;20082;-60
2022/02/01 12:49:33;;;;;;;50.85;6.88;;;;;;;;;;5107159;28;20051;-60
2022/02/01 12:51:59;;;;;;;48.45;6.05;;;;;;;;;;5108541;28;20048;-61
2022/02/01 12:54:28;;;;;;;39.10;6.00;;;;;;;;;;5107711;28;20043;-61
2022/02/01 12:57:12;;;;;;;41.30;7.25;;;;;;;;;;5106869;28;20043;-62
2022/02/01 12:59:38;;;;;;;32.87;5.23;;;;;;;;;;5105240;28;20075;-61
2022/02/01 13:02:05;;;;;;;45.10;5.70;;;;;;;;;;5089641;28;20051;-61
2022/02/01 13:04:32;;;;;;;48.88;5.93;;;;;;;;;;5103761;27;20077;-61
2022/02/01 13:06:58;;;;;;;56.00;8.63;;;;;;;;;;5108505;28;20398;-60
2022/02/01 13:15:08;;;;;;;36.58;5.47;;;;;;;;;;5089913;28;20150;-62
2022/02/01 13:17:40;;;;;;;43.35;6.32;;;;;;;;;;5092568;28;20075;-60
2022/02/01 13:20:19;;;;;;;48.95;6.40;;;;;;;;;;5109358;28;20511;-61
2022/02/01 13:22:49;;;;;;;53.00;4.97;;;;;;;;;;5106562;28;20047;-60
2022/02/01 13:25:15;;;;;;;48.03;6.38;;;;;;;;;;5107426;28;20433;-61
2022/02/01 13:27:41;;;;;;;35.95;4.95;;;;;;;;;;5108930;27;20056;-61
2022/02/01 13:30:10;;;;;;;40.70;6.40;;;;;;;;;;5110313;27;20195;-60
2022/02/01 13:32:37;;;;;;;37.42;6.10;;;;;;;;;;5106700;27;20067;-61
2022/02/01 13:35:05;;;;;;;41.33;5.63;;;;;;;;;;5102712;28;20162;-61
2022/02/01 13:37:33;;;;;;;37.47;4.47;;;;;;;;;;5102091;28;20056;-61
2022/02/01 13:39:59;;;;;;;45.42;6.13;;;;;;;;;;5105505;28;20054;-61
2022/02/01 13:42:32;;;;;;;37.20;5.03;;;;;;;;;;5105750;28;20032;-60
2022/02/01 13:45:02;;;;;;;27.23;4.63;;;;;;;;;;5100381;28;20044;-61
2022/02/01 13:47:34;;;;;;;33.55;6.60;;;;;;;;;;5111668;27;20154;-61
2022/02/01 13:50:00;;;;;;;31.10;5.85;;;;;;;;;;5085463;28;20055;-61
2022/02/01 13:52:27;;;;;;;32.30;5.15;;;;;;;;;;5100372;28;20117;-61
2022/02/01 13:54:53;;;;;;;41.38;5.97;;;;;;;;;;5096527;28;20428;-61
2022/02/01 13:57:20;;;;;;;38.63;5.88;;;;;;;;;;5101277;28;20039;-61
2022/02/01 13:59:48;;;;;;;35.90;5.05;;;;;;;;;;5105867;28;20032;-61
2022/02/01 14:02:19;;;;;;;38.03;5.28;;;;;;;;;;5082251;28;20387;-61
2022/02/01 14:04:52;;;;;;;33.60;5.65;;;;;;;;;;5104033;28;20550;-61
2022/02/01 14:07:37;;;;;;;23.93;4.53;;;;;;;;;;5100701;28;20054;-61
2022/02/01 14:10:26;;;;;;;37.15;4.82;;;;;;;;;;5101620;28;20035;-61
2022/02/01 14:28:53;;;;;;;52.67;7.53;;;;;;;;;;5107827;28;20407;-60
2022/02/01 14:34:09;;;;;;;37.15;5.60;;;;;;;;;;5090022;28;20040;-61
2022/02/01 14:36:39;;;;;;;35.05;5.85;;;;;;;;;;5109453;28;20051;-61
2022/02/01 14:39:19;;;;;;;42.72;6.35;;;;;;;;;;5089422;28;20080;-61
2022/02/01 14:44:49;;;;;;;46.58;6.28;;;;;;;;;;5109218;28;20126;-61
2022/02/01 14:47:17;;;;;;;50.50;7.03;;;;;;;;;;5108984;28;20047;-61
2022/02/01 14:49:43;;;;;;;40.42;5.85;;;;;;;;;;5109965;28;20040;-61
2022/02/01 14:52:10;;;;;;;39.90;6.80;;;;;;;;;;5109740;28;20081;-61
2022/02/01 15:13:20;;;;;;;49.13;7.35;;;;;;;;;;5111273;28;20056;-61
2022/02/01 15:15:46;;;;;;;42.90;6.53;;;;;;;;;;5110437;28;20452;-61
2022/02/01 15:18:12;;;;;;;43.08;7.30;;;;;;;;;;5111010;27;20103;-61
2022/02/01 15:20:39;;;;;;;36.20;8.07;;;;;;;;;;5115547;27;20175;-62
2022/02/01 15:23:05;;;;;;;39.97;7.13;;;;;;;;;;5092553;28;20063;-61
2022/02/01 15:25:31;;;;;;;46.42;7.90;;;;;;;;;;5116466;27;20058;-61
2022/02/01 15:27:57;;;;;;;41.22;5.68;;;;;;;;;;5116077;27;20130;-61
2022/02/01 15:30:23;;;;;;;49.60;8.57;;;;;;;;;;5112240;27;20042;-61
2022/02/01 15:32:49;;;;;;;44.35;6.75;;;;;;;;;;5111502;27;20101;-61
2022/02/01 15:35:17;;;;;;;54.13;6.85;;;;;;;;;;5114732;27;20043;-61
2022/02/01 15:37:45;;;;;;;42.78;7.25;;;;;;;;;;5113614;27;20201;-61
2022/02/01 15:46:32;;;;;;;47.42;6.40;;;;;;;;;;5112833;27;20036;-61
2022/02/01 15:54:28;;;;;;;60.72;7.47;;;;;;;;;;5113414;27;20395;-61
2022/02/01 15:54:43;;;;;;;49.55;9.55;;;;;;;;;;5092054;28;20406;-62
2022/02/01 15:57:26;;;;;;;39.08;7.30;;;;;;;;;;5109885;27;20120;-62
2022/02/01 15:59:54;;;;;;;61.88;9.35;;;;;;;;;;5111265;28;20410;-62
2022/02/01 16:02:22;;;;;;;45.15;8.20;;;;;;;;;;5084272;28;20132;-61
2022/02/01 16:04:54;;;;;;;40.78;9.77;;;;;;;;;;5106009;28;20043;-61
2022/02/01 16:07:21;;;;;;;54.08;8.40;;;;;;;;;;5092805;28;20130;-61
2022/02/01 16:10:07;;;;;;;46.33;9.50;;;;;;;;;;5110914;27;20039;-61
2022/02/01 16:12:37;;;;;;;57.65;9.45;;;;;;;;;;5114355;27;20066;-61
2022/02/01 16:15:04;;;;;;;49.63;8.95;;;;;;;;;;5097546;28;20058;-62
2022/02/01 16:17:30;;;;;;;46.38;8.00;;;;;;;;;;5094154;28;20044;-61
2022/02/01 16:19:56;;;;;;;48.13;8.55;;;;;;;;;;5111326;28;20035;-61
2022/02/01 16:22:23;;;;;;;54.90;8.95;;;;;;;;;;5108425;27;20088;-62
2022/02/01 16:24:49;;;;;;;63.97;12.43;;;;;;;;;;5106604;27;20043;-61
2022/02/01 16:27:15;;;;;;;50.47;9.18;;;;;;;;;;5105912;27;20376;-61
2022/02/01 16:29:42;;;;;;;53.60;8.45;;;;;;;;;;5105462;28;20539;-61
2022/02/01 16:32:08;;;;;;;61.75;9.75;;;;;;;;;;5108922;27;20039;-62
2022/02/01 16:34:35;;;;;;;54.10;8.00;;;;;;;;;;5112734;28;20071;-62
2022/02/01 16:37:01;;;;;;;56.38;10.00;;;;;;;;;;5111123;28;20403;-62
2022/02/01 16:39:27;;;;;;;49.45;8.38;;;;;;;;;;5111744;28;20036;-62
2022/02/01 16:41:58;;;;;;;55.40;10.30;;;;;;;;;;5092220;28;20055;-61
2022/02/01 16:44:25;;;;;;;52.13;8.40;;;;;;;;;;5108451;28;20058;-62